sensor_id;sensor_type;location;lat;lon;timestamp;pressure;altitude;pressure_sealevel;temperature;humidity
71194;BME280;58903;47.210;8.618;2023-02-18T00:02:33;95383.63;;;26.52;36.54
71194;BME280;58903;47.210;8.618;2023-02-18T00:05:08;95375.34;;;26.52;36.61
71194;BME280;58903;47.210;8.618;2023-02-18T00:07:59;95383.63;;;26.52;37.21
71194;BME280;58903;47.210;8.618;2023-02-18T00:10:40;95382.84;;;26.51;37.01
71194;BME280;58903;47.210;8.618;2023-02-18T00:13:17;95389.38;;;26.48;37.01
71194;BME280;58903;47.210;8.618;2023-02-18T00:18:40;95382.84;;;26.51;36.52
71194;BME280;58903;47.210;8.618;2023-02-18T00:21:27;95387.63;;;26.51;36.39
71194;BME280;58903;47.210;8.618;2023-02-18T00:23:54;95383.34;;;26.50;36.42
71194;BME280;58903;47.210;8.618;2023-02-18T00:26:29;95379.34;;;26.51;36.89
71194;BME280;58903;47.210;8.618;2023-02-18T00:29:03;95380.06;;;26.46;36.64
71194;BME280;58903;47.210;8.618;2023-02-18T00:31:32;95382.34;;;26.47;36.75
71194;BME280;58903;47.210;8.618;2023-02-18T00:34:05;95381.31;;;26.45;36.44
71194;BME280;58903;47.210;8.618;2023-02-18T00:36:31;95378.56;;;26.45;36.79
71194;BME280;58903;47.210;8.618;2023-02-18T00:38:59;95373.53;;;26.43;36.66
71194;BME280;58903;47.210;8.618;2023-02-18T00:41:29;95382.84;;;26.46;37.33
71194;BME280;58903;47.210;8.618;2023-02-18T00:43:55;95371.78;;;26.46;37.16
71194;BME280;58903;47.210;8.618;2023-02-18T00:46:52;95368.53;;;26.47;37.22
71194;BME280;58903;47.210;8.618;2023-02-18T00:49:36;95378.56;;;26.45;36.42
71194;BME280;58903;47.210;8.618;2023-02-18T00:52:24;95370.00;;;26.43;37.28
71194;BME280;58903;47.210;8.618;2023-02-18T00:55:06;95375.53;;;26.43;36.43
71194;BME280;58903;47.210;8.618;2023-02-18T00:57:47;95371.28;;;26.42;37.13
71194;BME280;58903;47.210;8.618;2023-02-18T01:00:16;95373.53;;;26.43;36.87
71194;BME280;58903;47.210;8.618;2023-02-18T01:02:45;95375.53;;;26.43;37.28
71194;BME280;58903;47.210;8.618;2023-02-18T01:05:22;95371.28;;;26.42;36.70
71194;BME280;58903;47.210;8.618;2023-02-18T01:07:56;95365.00;;;26.41;37.28
71194;BME280;58903;47.210;8.618;2023-02-18T01:10:24;95365.75;;;26.42;36.55
71194;BME280;58903;47.210;8.618;2023-02-18T01:13:05;95371.28;;;26.42;36.99
71194;BME280;58903;47.210;8.618;2023-02-18T01:15:45;95367.00;;;26.41;36.58
71194;BME280;58903;47.210;8.618;2023-02-18T01:18:17;95369.03;;;26.40;36.55
71194;BME280;58903;47.210;8.618;2023-02-18T01:20:57;95371.28;;;26.42;36.93
71194;BME280;58903;47.210;8.618;2023-02-18T01:23:56;95366.25;;;26.40;37.19
71194;BME280;58903;47.210;8.618;2023-02-18T01:26:35;95365.00;;;26.41;37.39
71194;BME280;58903;47.210;8.618;2023-02-18T01:29:14;95359.72;;;26.38;36.70
71194;BME280;58903;47.210;8.618;2023-02-18T01:32:06;95357.97;;;26.40;37.44
71194;BME280;58903;47.210;8.618;2023-02-18T01:34:47;95351.72;;;26.40;36.74
71194;BME280;58903;47.210;8.618;2023-02-18T01:37:13;95351.72;;;26.40;37.15
71194;BME280;58903;47.210;8.618;2023-02-18T01:39:55;95347.66;;;26.35;36.98
71194;BME280;58903;47.210;8.618;2023-02-18T01:42:26;95344.91;;;26.35;36.75
71194;BME280;58903;47.210;8.618;2023-02-18T01:45:23;95342.66;;;26.34;36.82
71194;BME280;58903;47.210;8.618;2023-02-18T01:50:48;95334.38;;;26.34;36.68
71194;BME280;58903;47.210;8.618;2023-02-18T01:53:19;95336.38;;;26.33;37.45
71194;BME280;58903;47.210;8.618;2023-02-18T01:55:49;95325.34;;;26.33;36.68
71194;BME280;58903;47.210;8.618;2023-02-18T01:58:15;95339.38;;;26.35;37.45
71194;BME280;58903;47.210;8.618;2023-02-18T02:00:41;95321.81;;;26.33;37.09
71194;BME280;58903;47.210;8.618;2023-02-18T02:03:07;95332.59;;;26.31;36.78
71194;BME280;58903;47.210;8.618;2023-02-18T02:05:38;95322.06;;;26.29;37.54
71194;BME280;58903;47.210;8.618;2023-02-18T02:08:13;95328.59;;;26.32;37.03
71194;BME280;58903;47.210;8.618;2023-02-18T02:11:03;95323.81;;;26.32;37.55
71194;BME280;58903;47.210;8.618;2023-02-18T02:16:48;95321.81;;;26.33;36.78
71194;BME280;58903;47.210;8.618;2023-02-18T02:33:12;95314.53;;;26.30;36.83
71194;BME280;58903;47.210;8.618;2023-02-18T02:35:53;95306.75;;;26.28;36.80
71194;BME280;58903;47.210;8.618;2023-02-18T02:42:02;95312.78;;;26.27;37.63
71194;BME280;58903;47.210;8.618;2023-02-18T02:45:27;95306.00;;;26.28;36.88
71194;BME280;58903;47.210;8.618;2023-02-18T02:51:29;95304.50;;;26.27;37.63
71194;BME280;58903;47.210;8.618;2023-02-18T02:54:27;95292.47;;;26.30;37.81
71194;BME280;58903;47.210;8.618;2023-02-18T02:59:57;95286.94;;;26.30;37.47
71194;BME280;58903;47.210;8.618;2023-02-18T03:03:04;95275.91;;;26.30;36.93
71194;BME280;58903;47.210;8.618;2023-02-18T03:08:40;95274.41;;;26.29;36.45
71194;BME280;58903;47.210;8.618;2023-02-18T03:11:28;95274.41;;;26.29;37.56
71194;BME280;58903;47.210;8.618;2023-02-18T03:14:09;95271.66;;;26.29;36.79
71194;BME280;58903;47.210;8.618;2023-02-18T03:16:50;95270.41;;;26.30;36.80
71194;BME280;58903;47.210;8.618;2023-02-18T03:19:28;95271.66;;;26.29;36.63
71194;BME280;58903;47.210;8.618;2023-02-18T03:22:21;95267.38;;;26.28;37.04
71194;BME280;58903;47.210;8.618;2023-02-18T03:24:54;95267.38;;;26.28;37.01
71194;BME280;58903;47.210;8.618;2023-02-18T03:27:27;95260.38;;;26.27;36.84
71194;BME280;58903;47.210;8.618;2023-02-18T03:30:06;95264.63;;;26.28;37.64
71194;BME280;58903;47.210;8.618;2023-02-18T03:32:34;95263.38;;;26.29;37.38
71194;BME280;58903;47.210;8.618;2023-02-18T03:35:06;95268.63;;;26.27;37.05
71194;BME280;58903;47.210;8.618;2023-02-18T03:38:02;95264.38;;;26.26;37.10
71194;BME280;58903;47.210;8.618;2023-02-18T03:40:33;95265.88;;;26.27;36.83
71194;BME280;58903;47.210;8.618;2023-02-18T03:43:07;95271.41;;;26.27;37.22
71194;BME280;58903;47.210;8.618;2023-02-18T03:45:43;95270.91;;;26.28;37.36
71194;BME280;58903;47.210;8.618;2023-02-18T03:48:28;95273.66;;;26.28;36.98
71194;BME280;58903;47.210;8.618;2023-02-18T03:51:04;95266.66;;;26.27;36.89
71194;BME280;58903;47.210;8.618;2023-02-18T03:53:31;95281.94;;;26.28;37.24
71194;BME280;58903;47.210;8.618;2023-02-18T03:56:05;95272.91;;;26.28;37.04
71194;BME280;58903;47.210;8.618;2023-02-18T03:58:40;95268.13;;;26.28;37.28
71194;BME280;58903;47.210;8.618;2023-02-18T04:01:10;95266.13;;;26.29;36.77
71194;BME280;58903;47.210;8.618;2023-02-18T04:03:50;95273.66;;;26.28;36.97
71194;BME280;58903;47.210;8.618;2023-02-18T04:06:16;95279.94;;;26.29;37.21
71194;BME280;58903;47.210;8.618;2023-02-18T04:08:43;95277.19;;;26.29;37.76
71194;BME280;58903;47.210;8.618;2023-02-18T04:11:39;95287.44;;;26.28;37.44
71194;BME280;58903;47.210;8.618;2023-02-18T04:14:24;95283.19;;;26.27;37.42
71194;BME280;58903;47.210;8.618;2023-02-18T04:17:19;95288.44;;;26.25;37.52
71194;BME280;58903;47.210;8.618;2023-02-18T04:19:48;95291.22;;;26.25;36.83
71194;BME280;58903;47.210;8.618;2023-02-18T04:22:14;95275.91;;;26.24;37.28
71194;BME280;58903;47.210;8.618;2023-02-18T04:25:00;95282.16;;;26.25;37.38
71194;BME280;58903;47.210;8.618;2023-02-18T04:28:01;95286.44;;;26.26;36.94
71194;BME280;58903;47.210;8.618;2023-02-18T04:30:46;95286.44;;;26.26;37.20
71194;BME280;58903;47.210;8.618;2023-02-18T04:33:13;95286.44;;;26.26;37.02
71194;BME280;58903;47.210;8.618;2023-02-18T04:35:42;95280.91;;;26.26;37.27
71194;BME280;58903;47.210;8.618;2023-02-18T04:38:34;95287.19;;;26.26;36.72
71194;BME280;58903;47.210;8.618;2023-02-18T04:41:01;95291.22;;;26.25;36.83
71194;BME280;58903;47.210;8.618;2023-02-18T04:43:56;95287.19;;;26.26;36.71
71194;BME280;58903;47.210;8.618;2023-02-18T04:46:44;95291.94;;;26.26;37.41
71194;BME280;58903;47.210;8.618;2023-02-18T04:49:22;95284.94;;;26.25;36.75
71194;BME280;58903;47.210;8.618;2023-02-18T04:51:50;95284.16;;;26.24;37.59
71194;BME280;58903;47.210;8.618;2023-02-18T04:54:40;95283.66;;;26.26;36.87
71194;BME280;58903;47.210;8.618;2023-02-18T04:57:29;95264.09;;;26.24;37.07
71194;BME280;58903;47.210;8.618;2023-02-18T04:59:55;95262.88;;;26.25;37.47
71194;BME280;58903;47.210;8.618;2023-02-18T05:02:21;95258.59;;;26.24;36.95
71194;BME280;58903;47.210;8.618;2023-02-18T05:04:47;95261.13;;;26.27;37.31
71194;BME280;58903;47.210;8.618;2023-02-18T05:07:16;95256.09;;;26.26;37.20
71194;BME280;58903;47.210;8.618;2023-02-18T05:09:44;95264.88;;;26.24;37.38
71194;BME280;58903;47.210;8.618;2023-02-18T05:12:24;95262.09;;;26.24;36.72
71194;BME280;58903;47.210;8.618;2023-02-18T05:15:10;95262.09;;;26.24;37.60
71194;BME280;58903;47.210;8.618;2023-02-18T05:17:37;95259.09;;;26.22;37.08
71194;BME280;58903;47.210;8.618;2023-02-18T05:23:36;95261.13;;;26.27;36.90
71194;BME280;58903;47.210;8.618;2023-02-18T05:26:02;95243.81;;;26.27;37.41
71194;BME280;58903;47.210;8.618;2023-02-18T05:28:40;95258.38;;;26.27;37.21
71194;BME280;58903;47.210;8.618;2023-02-18T05:31:06;95248.84;;;26.28;37.50
71194;BME280;58903;47.210;8.618;2023-02-18T05:33:34;95250.84;;;26.28;37.13
71194;BME280;58903;47.210;8.618;2023-02-18T05:36:00;95247.56;;;26.24;37.33
71194;BME280;58903;47.210;8.618;2023-02-18T05:38:56;95259.59;;;26.26;37.11
71194;BME280;58903;47.210;8.618;2023-02-18T05:41:41;95254.09;;;26.26;36.75
71194;BME280;58903;47.210;8.618;2023-02-18T05:47:34;95251.06;;;26.24;37.15
71194;BME280;58903;47.210;8.618;2023-02-18T05:50:01;95262.38;;;26.26;37.05
71194;BME280;58903;47.210;8.618;2023-02-18T05:52:28;95262.09;;;26.24;37.58
71194;BME280;58903;47.210;8.618;2023-02-18T05:54:56;95257.81;;;26.23;37.00
71194;BME280;58903;47.210;8.618;2023-02-18T05:57:24;95266.88;;;26.24;37.36
71194;BME280;58903;47.210;8.618;2023-02-18T05:59:50;95264.59;;;26.22;37.07
71194;BME280;58903;47.210;8.618;2023-02-18T06:02:17;95261.84;;;26.22;37.15
71194;BME280;58903;47.210;8.618;2023-02-18T06:04:43;95266.88;;;26.24;36.52
71194;BME280;58903;47.210;8.618;2023-02-18T06:07:09;95256.84;;;26.21;36.79
71194;BME280;58903;47.210;8.618;2023-02-18T06:09:38;95254.34;;;26.23;37.71
71194;BME280;58903;47.210;8.618;2023-02-18T06:12:04;95255.84;;;26.24;37.17
71194;BME280;58903;47.210;8.618;2023-02-18T06:14:30;95251.84;;;26.25;36.77
71194;BME280;58903;47.210;8.618;2023-02-18T06:16:58;95253.34;;;26.26;36.74
71194;BME280;58903;47.210;8.618;2023-02-18T06:19:38;95251.84;;;26.25;37.14
71194;BME280;58903;47.210;8.618;2023-02-18T06:22:36;95256.84;;;26.21;37.42
71194;BME280;58903;47.210;8.618;2023-02-18T06:25:16;95250.03;;;26.16;37.64
71194;BME280;58903;47.210;8.618;2023-02-18T06:27:54;95251.31;;;26.21;37.17
71194;BME280;58903;47.210;8.618;2023-02-18T06:30:24;95253.56;;;26.22;37.20
71194;BME280;58903;47.210;8.618;2023-02-18T06:33:10;95258.59;;;26.24;37.28
71194;BME280;58903;47.210;8.618;2023-02-18T06:35:38;95255.84;;;26.24;36.59
71194;BME280;58903;47.210;8.618;2023-02-18T06:38:17;95264.09;;;26.24;36.67
71194;BME280;58903;47.210;8.618;2023-02-18T06:40:59;95265.63;;;26.25;36.95
71194;BME280;58903;47.210;8.618;2023-02-18T06:43:45;95265.63;;;26.25;36.74
71194;BME280;58903;47.210;8.618;2023-02-18T06:46:16;95257.09;;;26.23;37.54
71194;BME280;58903;47.210;8.618;2023-02-18T06:49:11;95260.59;;;26.23;37.37
71194;BME280;58903;47.210;8.618;2023-02-18T06:55:20;95251.31;;;26.21;36.85
71194;BME280;58903;47.210;8.618;2023-02-18T06:57:46;95251.06;;;26.19;37.20
71194;BME280;58903;47.210;8.618;2023-02-18T07:00:12;95243.53;;;26.19;37.08
71194;BME280;58903;47.210;8.618;2023-02-18T07:02:41;95250.31;;;26.18;37.10
71194;BME280;58903;47.210;8.618;2023-02-18T07:05:08;95239.28;;;26.18;36.69
71194;BME280;58903;47.210;8.618;2023-02-18T07:07:34;95245.00;;;26.14;37.25
71194;BME280;58903;47.210;8.618;2023-02-18T07:10:02;95245.00;;;26.14;37.50
71194;BME280;58903;47.210;8.618;2023-02-18T07:12:29;95245.25;;;26.16;36.78
71194;BME280;58903;47.210;8.618;2023-02-18T07:14:59;95242.03;;;26.18;36.81
71194;BME280;58903;47.210;8.618;2023-02-18T07:17:26;95258.06;;;26.20;36.80
71194;BME280;58903;47.210;8.618;2023-02-18T07:19:52;95250.56;;;26.20;37.22
71194;BME280;58903;47.210;8.618;2023-02-18T07:22:19;95252.56;;;26.20;37.01
71194;BME280;58903;47.210;8.618;2023-02-18T07:24:45;95252.06;;;26.21;36.73
71194;BME280;58903;47.210;8.618;2023-02-18T07:27:13;95255.31;;;26.20;37.53
71194;BME280;58903;47.210;8.618;2023-02-18T07:29:41;95249.28;;;26.21;37.33
71194;BME280;58903;47.210;8.618;2023-02-18T07:32:17;95257.81;;;26.23;36.73
71194;BME280;58903;47.210;8.618;2023-02-18T07:34:45;95252.81;;;26.22;37.50
71194;BME280;58903;47.210;8.618;2023-02-18T07:37:12;95250.31;;;26.18;37.09
71194;BME280;58903;47.210;8.618;2023-02-18T07:39:41;95258.34;;;26.22;37.54
71194;BME280;58903;47.210;8.618;2023-02-18T07:42:08;95255.31;;;26.20;37.33
71194;BME280;58903;47.210;8.618;2023-02-18T07:44:40;95254.06;;;26.21;37.24
71194;BME280;58903;47.210;8.618;2023-02-18T07:47:13;95250.25;;;26.12;37.85
71194;BME280;58903;47.210;8.618;2023-02-18T07:49:44;95248.75;;;26.11;37.89
71194;BME280;58903;47.210;8.618;2023-02-18T07:52:13;95248.03;;;26.16;37.75
71194;BME280;58903;47.210;8.618;2023-02-18T07:54:40;95244.28;;;26.20;37.93
71194;BME280;58903;47.210;8.618;2023-02-18T07:57:09;95245.81;;;26.21;37.73
71194;BME280;58903;47.210;8.618;2023-02-18T07:59:36;95242.78;;;26.19;37.54
71194;BME280;58903;47.210;8.618;2023-02-18T08:02:04;95244.53;;;26.22;37.54
71194;BME280;58903;47.210;8.618;2023-02-18T08:04:33;95245.56;;;26.24;37.21
71194;BME280;58903;47.210;8.618;2023-02-18T08:06:59;95253.34;;;26.26;36.97
71194;BME280;58903;47.210;8.618;2023-02-18T08:09:25;95257.09;;;26.23;37.36
71194;BME280;58903;47.210;8.618;2023-02-18T08:11:53;95248.56;;;26.21;37.51
71194;BME280;58903;47.210;8.618;2023-02-18T08:14:19;95252.81;;;26.22;38.01
71194;BME280;58903;47.210;8.618;2023-02-18T08:16:46;95251.31;;;26.21;38.19
71194;BME280;58903;47.210;8.618;2023-02-18T08:19:12;95249.56;;;26.23;38.30
71194;BME280;58903;47.210;8.618;2023-02-18T08:21:40;95248.81;;;26.23;37.80
71194;BME280;58903;47.210;8.618;2023-02-18T08:24:06;95242.81;;;26.24;37.69
71194;BME280;58903;47.210;8.618;2023-02-18T08:26:34;95256.34;;;26.28;37.73
71194;BME280;58903;47.210;8.618;2023-02-18T08:29:01;95250.34;;;26.29;37.17
71194;BME280;58903;47.210;8.618;2023-02-18T08:31:34;95260.63;;;26.29;38.03
71194;BME280;58903;47.210;8.618;2023-02-18T08:34:01;95253.59;;;26.28;37.30
71194;BME280;58903;47.210;8.618;2023-02-18T08:36:29;95256.59;;;26.30;37.36
71194;BME280;58903;47.210;8.618;2023-02-18T08:38:56;95262.41;;;26.32;37.27
71194;BME280;58903;47.210;8.618;2023-02-18T08:41:25;95256.59;;;26.30;37.49
71194;BME280;58903;47.210;8.618;2023-02-18T08:43:52;95267.91;;;26.32;38.11
71194;BME280;58903;47.210;8.618;2023-02-18T08:46:20;95258.88;;;26.31;37.89
71194;BME280;58903;47.210;8.618;2023-02-18T08:49:04;95264.66;;;26.33;37.31
71194;BME280;58903;47.210;8.618;2023-02-18T08:51:40;95262.16;;;26.35;37.28
71194;BME280;58903;47.210;8.618;2023-02-18T08:54:17;95264.16;;;26.35;37.22
71194;BME280;58903;47.210;8.618;2023-02-18T08:56:43;95267.69;;;26.35;37.33
71194;BME280;58903;47.210;8.618;2023-02-18T08:59:09;95266.16;;;26.34;37.33
71194;BME280;58903;47.210;8.618;2023-02-18T09:01:35;95269.16;;;26.31;37.57
71194;BME280;58903;47.210;8.618;2023-02-18T09:04:05;95263.38;;;26.29;38.01
71194;BME280;58903;47.210;8.618;2023-02-18T09:06:37;95274.44;;;26.34;37.70
71194;BME280;58903;47.210;8.618;2023-02-18T09:09:45;95265.44;;;26.34;37.21
71194;BME280;58903;47.210;8.618;2023-02-18T09:12:40;95262.91;;;26.36;37.70
71194;BME280;58903;47.210;8.618;2023-02-18T09:15:06;95263.91;;;26.33;37.23
71194;BME280;58903;47.210;8.618;2023-02-18T09:17:47;95264.16;;;26.35;37.58
71194;BME280;58903;47.210;8.618;2023-02-18T09:20:40;95265.19;;;26.37;37.40
71194;BME280;58903;47.210;8.618;2023-02-18T09:23:19;95254.91;;;26.38;37.52
71194;BME280;58903;47.210;8.618;2023-02-18T09:25:57;95258.91;;;26.37;37.86
71194;BME280;58903;47.210;8.618;2023-02-18T09:28:26;95262.16;;;26.35;37.67
71194;BME280;58903;47.210;8.618;2023-02-18T09:31:12;95251.13;;;26.35;37.87
71194;BME280;58903;47.210;8.618;2023-02-18T09:34:17;95251.13;;;26.35;37.12
71194;BME280;58903;47.210;8.618;2023-02-18T09:37:10;95245.88;;;26.37;37.07
71194;BME280;58903;47.210;8.618;2023-02-18T09:39:41;95243.88;;;26.38;37.60
71194;BME280;58903;47.210;8.618;2023-02-18T09:42:17;95240.09;;;26.35;37.33
71194;BME280;58903;47.210;8.618;2023-02-18T09:45:05;95240.84;;;26.36;37.08
71194;BME280;58903;47.210;8.618;2023-02-18T09:47:54;95240.88;;;26.41;37.36
71194;BME280;58903;47.210;8.618;2023-02-18T09:50:38;95235.84;;;26.40;37.05
71194;BME280;58903;47.210;8.618;2023-02-18T09:53:21;95232.84;;;26.38;37.12
71194;BME280;58903;47.210;8.618;2023-02-18T09:56:05;95232.84;;;26.38;37.39
71194;BME280;58903;47.210;8.618;2023-02-18T09:59:10;95241.59;;;26.36;37.31
71194;BME280;58903;47.210;8.618;2023-02-18T10:01:40;95237.31;;;26.30;37.84
71194;BME280;58903;47.210;8.618;2023-02-18T10:07:37;95244.84;;;26.35;37.71
71194;BME280;58903;47.210;8.618;2023-02-18T10:13:12;95240.09;;;26.35;38.44
71194;BME280;58903;47.210;8.618;2023-02-18T10:15:42;95235.34;;;26.36;38.03
71194;BME280;58903;47.210;8.618;2023-02-18T10:18:22;95231.06;;;26.35;38.02
71194;BME280;58903;47.210;8.618;2023-02-18T10:20:52;95227.06;;;26.36;37.78
71194;BME280;58903;47.210;8.618;2023-02-18T10:23:23;95228.81;;;26.39;38.52
71194;BME280;58903;47.210;8.618;2023-02-18T10:26:15;95224.06;;;26.39;38.54
71194;BME280;58903;47.210;8.618;2023-02-18T10:28:43;95228.81;;;26.39;38.07
71194;BME280;58903;47.210;8.618;2023-02-18T10:31:19;95232.59;;;26.41;38.14
71194;BME280;58903;47.210;8.618;2023-02-18T10:34:18;95241.63;;;26.42;38.60
71194;BME280;58903;47.210;8.618;2023-02-18T10:37:06;95223.06;;;26.42;38.57
71194;BME280;58903;47.210;8.618;2023-02-18T10:39:51;95222.81;;;26.46;38.06
71194;BME280;58903;47.210;8.618;2023-02-18T10:50:49;95222.81;;;26.46;37.86
71194;BME280;58903;47.210;8.618;2023-02-18T10:53:32;95226.34;;;26.46;38.11
71194;BME280;58903;47.210;8.618;2023-02-18T10:55:59;95217.31;;;26.46;38.05
71194;BME280;58903;47.210;8.618;2023-02-18T10:58:33;95221.09;;;26.48;38.32
71194;BME280;58903;47.210;8.618;2023-02-18T11:01:15;95215.78;;;26.45;38.57
71194;BME280;58903;47.210;8.618;2023-02-18T11:04:10;95221.09;;;26.48;38.89
71194;BME280;58903;47.210;8.618;2023-02-18T11:06:42;95216.31;;;26.49;38.90
71194;BME280;58903;47.210;8.618;2023-02-18T11:09:33;95222.34;;;26.53;38.23
71194;BME280;58903;47.210;8.618;2023-02-18T11:17:47;95215.56;;;26.54;38.86
71194;BME280;58903;47.210;8.618;2023-02-18T11:20:27;95206.81;;;26.55;39.03
71194;BME280;58903;47.210;8.618;2023-02-18T11:25:38;95200.03;;;26.56;38.99
71194;BME280;58903;47.210;8.618;2023-02-18T11:28:32;95198.03;;;26.57;39.16
71194;BME280;58903;47.210;8.618;2023-02-18T11:31:04;95192.25;;;26.60;39.00
71194;BME280;58903;47.210;8.618;2023-02-18T11:33:38;95195.78;;;26.61;39.47
71194;BME280;58903;47.210;8.618;2023-02-18T11:41:12;95179.47;;;26.63;39.11
71194;BME280;58903;47.210;8.618;2023-02-18T11:43:48;95178.25;;;26.64;38.71
71194;BME280;58903;47.210;8.618;2023-02-18T11:46:27;95177.47;;;26.63;38.95
71194;BME280;58903;47.210;8.618;2023-02-18T11:48:55;95163.19;;;26.65;38.21
71194;BME280;58903;47.210;8.618;2023-02-18T11:51:44;95159.44;;;26.68;39.15
71194;BME280;58903;47.210;8.618;2023-02-18T11:54:38;95154.16;;;26.70;39.10
71194;BME280;58903;47.210;8.618;2023-02-18T11:57:21;95152.41;;;26.72;38.88
71194;BME280;58903;47.210;8.618;2023-02-18T12:02:53;95132.34;;;26.72;38.37
71194;BME280;58903;47.210;8.618;2023-02-18T12:05:26;95127.81;;;26.69;38.94
71194;BME280;58903;47.210;8.618;2023-02-18T12:08:27;95127.81;;;26.69;38.32
71194;BME280;58903;47.210;8.618;2023-02-18T12:11:14;95117.53;;;26.69;38.90
71194;BME280;58903;47.210;8.618;2023-02-18T12:14:17;95118.53;;;26.72;38.89
71194;BME280;58903;47.210;8.618;2023-02-18T12:31:29;95094.22;;;26.76;38.18
71194;BME280;58903;47.210;8.618;2023-02-18T12:34:50;95097.75;;;26.76;38.73
71194;BME280;58903;47.210;8.618;2023-02-18T12:37:47;95079.94;;;26.83;38.68
71194;BME280;58903;47.210;8.618;2023-02-18T12:46:00;95073.16;;;26.89;38.44
71194;BME280;58903;47.210;8.618;2023-02-18T12:59:07;95070.13;;;26.99;37.18
71194;BME280;58903;47.210;8.618;2023-02-18T13:11:14;95052.31;;;26.94;35.99
71194;BME280;58903;47.210;8.618;2023-02-18T13:17:18;95054.84;;;26.92;36.89
71194;BME280;58903;47.210;8.618;2023-02-18T13:19:53;95047.28;;;26.98;36.87
71194;BME280;58903;47.210;8.618;2023-02-18T13:22:32;95036.97;;;27.04;36.61
71194;BME280;58903;47.210;8.618;2023-02-18T13:25:12;95042.50;;;27.04;35.52
71194;BME280;58903;47.210;8.618;2023-02-18T13:40:26;95016.66;;;27.02;34.82
71194;BME280;58903;47.210;8.618;2023-02-18T13:43:20;95012.38;;;27.06;34.66
71194;BME280;58903;47.210;8.618;2023-02-18T13:49:36;95011.63;;;27.11;35.32
71194;BME280;58903;47.210;8.618;2023-02-18T13:52:19;95008.88;;;27.11;34.92
71194;BME280;58903;47.210;8.618;2023-02-18T13:55:00;95008.84;;;27.17;35.14
71194;BME280;58903;47.210;8.618;2023-02-18T13:57:27;95005.59;;;27.18;35.18
71194;BME280;58903;47.210;8.618;2023-02-18T14:03:19;94998.28;;;27.26;35.35
71194;BME280;58903;47.210;8.618;2023-02-18T14:06:34;94989.72;;;27.30;35.63
71194;BME280;58903;47.210;8.618;2023-02-18T14:09:29;94996.22;;;27.32;35.06
71194;BME280;58903;47.210;8.618;2023-02-18T14:26:38;94977.63;;;27.44;35.73
71194;BME280;58903;47.210;8.618;2023-02-18T14:29:29;94993.94;;;27.47;35.71
71194;BME280;58903;47.210;8.618;2023-02-18T14:32:32;94975.59;;;27.50;35.73
71194;BME280;58903;47.210;8.618;2023-02-18T14:35:22;94971.06;;;27.52;35.67
71194;BME280;58903;47.210;8.618;2023-02-18T14:49:08;94961.44;;;27.64;35.96
71194;BME280;58903;47.210;8.618;2023-02-18T14:51:44;94954.66;;;27.66;35.90
71194;BME280;58903;47.210;8.618;2023-02-18T14:54:19;94952.16;;;27.68;35.95
71194;BME280;58903;47.210;8.618;2023-02-18T14:59:27;94951.59;;;27.75;35.92
71194;BME280;58903;47.210;8.618;2023-02-18T15:02:20;94954.84;;;27.79;35.58
71194;BME280;58903;47.210;8.618;2023-02-18T15:05:23;94955.09;;;27.81;35.98
71194;BME280;58903;47.210;8.618;2023-02-18T15:08:24;94954.06;;;27.84;35.97
71194;BME280;58903;47.210;8.618;2023-02-18T15:11:06;94954.31;;;27.86;35.97
71194;BME280;58903;47.210;8.618;2023-02-18T15:13:47;94950.78;;;27.85;36.36
71194;BME280;58903;47.210;8.618;2023-02-18T15:16:32;94952.78;;;27.90;35.74
71194;BME280;58903;47.210;8.618;2023-02-18T15:19:05;94955.00;;;27.92;35.77
71194;BME280;58903;47.210;8.618;2023-02-18T15:21:58;94948.47;;;27.95;35.81
71194;BME280;58903;47.210;8.618;2023-02-18T15:25:00;94955.50;;;27.96;35.86
71194;BME280;58903;47.210;8.618;2023-02-18T15:27:41;94948.97;;;27.99;36.04
71194;BME280;58903;47.210;8.618;2023-02-18T15:30:29;94950.69;;;28.02;35.80
71194;BME280;58903;47.210;8.618;2023-02-18T15:33:24;94942.41;;;28.02;35.91
71194;BME280;58903;47.210;8.618;2023-02-18T15:36:11;94952.44;;;28.05;35.87
71194;BME280;58903;47.210;8.618;2023-02-18T15:38:38;94952.44;;;28.05;35.66
71194;BME280;58903;47.210;8.618;2023-02-18T15:41:26;94951.97;;;28.01;35.96
71194;BME280;58903;47.210;8.618;2023-02-18T15:44:03;94957.00;;;27.97;36.20
71194;BME280;58903;47.210;8.618;2023-02-18T15:46:33;94946.69;;;27.97;35.71
71194;BME280;58903;47.210;8.618;2023-02-18T15:55:40;94955.25;;;27.94;35.85
71194;BME280;58903;47.210;8.618;2023-02-18T16:01:39;94951.25;;;27.89;36.25
71194;BME280;58903;47.210;8.618;2023-02-18T16:04:27;94941.47;;;27.88;35.93
71194;BME280;58903;47.210;8.618;2023-02-18T16:07:21;94946.00;;;27.86;36.02
71194;BME280;58903;47.210;8.618;2023-02-18T16:10:22;94954.06;;;27.84;36.32
71194;BME280;58903;47.210;8.618;2023-02-18T16:12:57;94944.03;;;27.81;36.33
71194;BME280;58903;47.210;8.618;2023-02-18T16:18:52;94943.81;;;27.73;36.32
71194;BME280;58903;47.210;8.618;2023-02-18T16:21:53;94943.31;;;27.75;36.13
71194;BME280;58903;47.210;8.618;2023-02-18T16:24:39;94942.09;;;27.70;36.09
71194;BME280;58903;47.210;8.618;2023-02-18T16:27:14;94945.59;;;27.71;36.24
71194;BME280;58903;47.210;8.618;2023-02-18T16:30:08;94941.31;;;27.70;36.49
71194;BME280;58903;47.210;8.618;2023-02-18T16:32:54;94941.38;;;27.64;36.28
71194;BME280;58903;47.210;8.618;2023-02-18T16:35:39;94938.88;;;27.60;36.59
71194;BME280;58903;47.210;8.618;2023-02-18T16:38:14;94942.38;;;27.61;36.23
71194;BME280;58903;47.210;8.618;2023-02-18T16:41:05;94942.38;;;27.61;36.40
71194;BME280;58903;47.210;8.618;2023-02-18T16:43:44;94950.94;;;27.57;36.12
71194;BME280;58903;47.210;8.618;2023-02-18T16:46:25;94956.72;;;27.54;36.65
71194;BME280;58903;47.210;8.618;2023-02-18T16:48:54;94960.78;;;27.53;36.38
71194;BME280;58903;47.210;8.618;2023-02-18T16:51:41;94957.53;;;27.49;36.53
71194;BME280;58903;47.210;8.618;2023-02-18T16:54:20;94960.78;;;27.47;37.09
71194;BME280;58903;47.210;8.618;2023-02-18T16:56:50;94959.53;;;27.48;36.55
71194;BME280;58903;47.210;8.618;2023-02-18T16:59:26;94952.25;;;27.45;36.60